NPV7634 LICT-LICG
Flight info
| Callsign | NPV7634 |
|---|---|
| Flight time | 0h 27m |
| Altitude | 15000 |
| Route | MEGAN M740 ROBET |
| Aircraft | DH8D/M-SDE2E3FGRY/H |
Departure
| Time | 2026-04-26 15:09 |
|---|---|
| Airport | Vincenzo Florio Airport Trapani-Birgi (LICT) |
Arrival
| Time | 2026-04-26 15:37 |
|---|---|
| Airport | Pantelleria Airport (LICG) |
| Time | Latitude | Longitude | Altitude | Speed | Heading |
|---|---|---|---|---|---|
| 2026-04-26 13:51 | 37.90284 | 12.49600 | 36 ft | 0 kts | 262° |
| 2026-04-26 15:00 | 37.90289 | 12.49582 | 36 ft | 2 kts | 348° |
| 2026-04-26 15:00 | 37.90299 | 12.49622 | 36 ft | 9 kts | 93° |
| 2026-04-26 15:01 | 37.90298 | 12.49657 | 36 ft | 0 kts | 89° |
| 2026-04-26 15:01 | 37.90306 | 12.49681 | 37 ft | 0 kts | 56° |
| 2026-04-26 15:01 | 37.90301 | 12.49715 | 38 ft | 9 kts | 89° |
| 2026-04-26 15:02 | 37.90370 | 12.49710 | 37 ft | 10 kts | 308° |
| 2026-04-26 15:02 | 37.90425 | 12.49658 | 36 ft | 7 kts | 9° |
| 2026-04-26 15:02 | 37.90470 | 12.49698 | 36 ft | 12 kts | 36° |
| 2026-04-26 15:02 | 37.90512 | 12.49736 | 37 ft | 8 kts | 35° |
| 2026-04-26 15:03 | 37.90556 | 12.49747 | 37 ft | 0 kts | 311° |
| 2026-04-26 15:08 | 37.90639 | 12.49615 | 35 ft | 62 kts | 308° |
| 2026-04-26 15:09 | 37.91090 | 12.48879 | 30 ft | 140 kts | 305° |
| 2026-04-26 15:09 | 37.91748 | 12.47854 | 361 ft | 161 kts | 315° |
| 2026-04-26 15:09 | 37.92553 | 12.46807 | 982 ft | 171 kts | 323° |
| 2026-04-26 15:09 | 37.93627 | 12.46256 | 1661 ft | 172 kts | 351° |
| 2026-04-26 15:10 | 37.94798 | 12.46150 | 2415 ft | 170 kts | 358° |
| 2026-04-26 15:10 | 37.95604 | 12.46073 | 2840 ft | 176 kts | 356° |
| 2026-04-26 15:10 | 37.97208 | 12.45859 | 3791 ft | 178 kts | 349° |
| 2026-04-26 15:10 | 37.98365 | 12.45307 | 4452 ft | 181 kts | 334° |
| 2026-04-26 15:11 | 37.99488 | 12.44586 | 5098 ft | 181 kts | 334° |
| 2026-04-26 15:11 | 38.00596 | 12.43873 | 5732 ft | 183 kts | 334° |
| 2026-04-26 15:11 | 38.01727 | 12.43143 | 6355 ft | 184 kts | 333° |
| 2026-04-26 15:11 | 38.02872 | 12.42404 | 6974 ft | 185 kts | 333° |
| 2026-04-26 15:12 | 38.04015 | 12.41666 | 7547 ft | 188 kts | 333° |
| 2026-04-26 15:12 | 38.05178 | 12.40916 | 8164 ft | 188 kts | 333° |
| 2026-04-26 15:12 | 38.06342 | 12.40161 | 8731 ft | 190 kts | 333° |
| 2026-04-26 15:12 | 38.07497 | 12.39384 | 9328 ft | 191 kts | 332° |
| 2026-04-26 15:13 | 38.08675 | 12.38584 | 9888 ft | 193 kts | 332° |
| 2026-04-26 15:13 | 38.09845 | 12.37791 | 10468 ft | 193 kts | 332° |
| 2026-04-26 15:13 | 38.11028 | 12.36988 | 11011 ft | 194 kts | 331° |
| 2026-04-26 15:13 | 38.12234 | 12.36171 | 11529 ft | 197 kts | 331° |
| 2026-04-26 15:14 | 38.13430 | 12.35359 | 12070 ft | 198 kts | 330° |
| 2026-04-26 15:14 | 38.14495 | 12.34278 | 12503 ft | 200 kts | 300° |
| 2026-04-26 15:14 | 38.14694 | 12.32560 | 12897 ft | 203 kts | 253° |
| 2026-04-26 15:14 | 38.13835 | 12.31185 | 13262 ft | 209 kts | 209° |
| 2026-04-26 15:15 | 38.12387 | 12.30857 | 13665 ft | 215 kts | 180° |
| 2026-04-26 15:15 | 38.10907 | 12.30965 | 14129 ft | 216 kts | 179° |
| 2026-04-26 15:15 | 38.09409 | 12.31075 | 14586 ft | 217 kts | 180° |
| 2026-04-26 15:15 | 38.07890 | 12.31181 | 15030 ft | 217 kts | 180° |
| 2026-04-26 15:16 | 38.06391 | 12.31279 | 15451 ft | 219 kts | 180° |
| 2026-04-26 15:16 | 38.04857 | 12.31373 | 15850 ft | 222 kts | 181° |
| 2026-04-26 15:16 | 38.03230 | 12.31465 | 15808 ft | 248 kts | 180° |
| 2026-04-26 15:16 | 38.01441 | 12.31564 | 15822 ft | 268 kts | 180° |
| 2026-04-26 15:17 | 37.99496 | 12.31672 | 15806 ft | 288 kts | 180° |
| 2026-04-26 15:17 | 37.98133 | 12.31747 | 15740 ft | 301 kts | 180° |
| 2026-04-26 15:17 | 37.95220 | 12.31902 | 15589 ft | 323 kts | 180° |
| 2026-04-26 15:17 | 37.92956 | 12.31659 | 15477 ft | 333 kts | 193° |
| 2026-04-26 15:18 | 37.90700 | 12.30943 | 15373 ft | 339 kts | 198° |
| 2026-04-26 15:18 | 37.88400 | 12.30055 | 15263 ft | 345 kts | 200° |
| 2026-04-26 15:18 | 37.86115 | 12.29113 | 15151 ft | 349 kts | 200° |
| 2026-04-26 15:18 | 37.83802 | 12.28134 | 15141 ft | 349 kts | 200° |
| 2026-04-26 15:19 | 37.81516 | 12.27155 | 15134 ft | 349 kts | 201° |
| 2026-04-26 15:19 | 37.79204 | 12.26166 | 15133 ft | 349 kts | 201° |
| 2026-04-26 15:19 | 37.76915 | 12.25191 | 15124 ft | 349 kts | 201° |
| 2026-04-26 15:19 | 37.74600 | 12.24209 | 15123 ft | 349 kts | 201° |
| 2026-04-26 15:20 | 37.72276 | 12.23225 | 15129 ft | 349 kts | 201° |
| 2026-04-26 15:20 | 37.69984 | 12.22221 | 15121 ft | 348 kts | 204° |
| 2026-04-26 15:20 | 37.68016 | 12.20558 | 15127 ft | 341 kts | 227° |
| 2026-04-26 15:20 | 37.66469 | 12.18289 | 15120 ft | 341 kts | 232° |
| 2026-04-26 15:21 | 37.64943 | 12.15993 | 15120 ft | 341 kts | 232° |
| 2026-04-26 15:21 | 37.63422 | 12.13713 | 15126 ft | 341 kts | 232° |
| 2026-04-26 15:21 | 37.61904 | 12.11456 | 15128 ft | 341 kts | 232° |
| 2026-04-26 15:21 | 37.60354 | 12.09165 | 15129 ft | 341 kts | 232° |
| 2026-04-26 15:22 | 37.58817 | 12.06907 | 15127 ft | 341 kts | 232° |
| 2026-04-26 15:22 | 37.57264 | 12.04634 | 15126 ft | 341 kts | 232° |
| 2026-04-26 15:22 | 37.55722 | 12.02387 | 15124 ft | 342 kts | 231° |
| 2026-04-26 15:22 | 37.53922 | 12.00393 | 15093 ft | 347 kts | 213° |
| 2026-04-26 15:23 | 37.51620 | 11.99530 | 15131 ft | 352 kts | 189° |
| 2026-04-26 15:23 | 37.49157 | 11.99356 | 15122 ft | 354 kts | 185° |
| 2026-04-26 15:23 | 37.46705 | 11.99247 | 15122 ft | 355 kts | 184° |
| 2026-04-26 15:23 | 37.44220 | 11.99147 | 15125 ft | 355 kts | 184° |
| 2026-04-26 15:24 | 37.41732 | 11.99047 | 15123 ft | 355 kts | 184° |
| 2026-04-26 15:24 | 37.39279 | 11.98948 | 15122 ft | 355 kts | 184° |
| 2026-04-26 15:24 | 37.36788 | 11.98846 | 15121 ft | 356 kts | 185° |
| 2026-04-26 15:24 | 37.34323 | 11.98745 | 15080 ft | 356 kts | 184° |
| 2026-04-26 15:25 | 37.31853 | 11.98644 | 14557 ft | 352 kts | 184° |
| 2026-04-26 15:25 | 37.30248 | 11.98582 | 14306 ft | 348 kts | 184° |
| 2026-04-26 15:25 | 37.27049 | 11.98456 | 13782 ft | 340 kts | 184° |
| 2026-04-26 15:25 | 37.24719 | 11.98362 | 13419 ft | 335 kts | 185° |
| 2026-04-26 15:26 | 37.22389 | 11.98268 | 13053 ft | 331 kts | 185° |
| 2026-04-26 15:26 | 37.20129 | 11.98175 | 12698 ft | 327 kts | 184° |
| 2026-04-26 15:26 | 37.17856 | 11.98081 | 12339 ft | 324 kts | 184° |
| 2026-04-26 15:26 | 37.15617 | 11.97988 | 11986 ft | 321 kts | 184° |
| 2026-04-26 15:27 | 37.13378 | 11.97895 | 11631 ft | 318 kts | 184° |
| 2026-04-26 15:27 | 37.11185 | 11.97804 | 11285 ft | 316 kts | 184° |
| 2026-04-26 15:27 | 37.08982 | 11.97712 | 10935 ft | 314 kts | 184° |
| 2026-04-26 15:27 | 37.06807 | 11.97750 | 10390 ft | 320 kts | 173° |
| 2026-04-26 15:28 | 37.04800 | 11.98888 | 10085 ft | 316 kts | 142° |
| 2026-04-26 15:28 | 37.03476 | 12.00990 | 9792 ft | 305 kts | 119° |
| 2026-04-26 15:28 | 37.02518 | 12.03294 | 9452 ft | 290 kts | 116° |
| 2026-04-26 15:28 | 37.01632 | 12.05500 | 9136 ft | 277 kts | 116° |
| 2026-04-26 15:29 | 37.00790 | 12.07615 | 8831 ft | 265 kts | 115° |
| 2026-04-26 15:29 | 36.99996 | 12.09613 | 8560 ft | 253 kts | 115° |
| 2026-04-26 15:29 | 36.98499 | 12.13385 | 7970 ft | 235 kts | 115° |
| 2026-04-26 15:30 | 36.97108 | 12.16889 | 7393 ft | 215 kts | 115° |
| 2026-04-26 15:30 | 36.96459 | 12.18523 | 7146 ft | 202 kts | 115° |
| 2026-04-26 15:30 | 36.95836 | 12.20065 | 6924 ft | 201 kts | 118° |
| 2026-04-26 15:31 | 36.94840 | 12.21255 | 6682 ft | 198 kts | 158° |
| 2026-04-26 15:31 | 36.92189 | 12.22109 | 6267 ft | 198 kts | 167° |
| 2026-04-26 15:31 | 36.90829 | 12.22502 | 6052 ft | 201 kts | 167° |
| 2026-04-26 15:32 | 36.88508 | 12.23135 | 5613 ft | 212 kts | 174° |
| 2026-04-26 15:32 | 36.86711 | 12.22264 | 5101 ft | 215 kts | 233° |
| 2026-04-26 15:32 | 36.86132 | 12.20576 | 4816 ft | 216 kts | 257° |
| 2026-04-26 15:33 | 36.85786 | 12.18709 | 4480 ft | 224 kts | 259° |
| 2026-04-26 15:33 | 36.85435 | 12.16769 | 4128 ft | 232 kts | 258° |
| 2026-04-26 15:33 | 36.85074 | 12.14793 | 3767 ft | 239 kts | 258° |
| 2026-04-26 15:33 | 36.84697 | 12.12790 | 3392 ft | 232 kts | 258° |
| 2026-04-26 15:34 | 36.84335 | 12.10889 | 3049 ft | 225 kts | 257° |
| 2026-04-26 15:34 | 36.83978 | 12.09015 | 2697 ft | 218 kts | 257° |
| 2026-04-26 15:34 | 36.83642 | 12.07259 | 2363 ft | 198 kts | 257° |
| 2026-04-26 15:34 | 36.83336 | 12.05665 | 2078 ft | 181 kts | 256° |
| 2026-04-26 15:35 | 36.83061 | 12.04227 | 1864 ft | 162 kts | 256° |
| 2026-04-26 15:35 | 36.82807 | 12.02902 | 1556 ft | 151 kts | 255° |
| 2026-04-26 15:35 | 36.82576 | 12.01697 | 1301 ft | 137 kts | 255° |
| 2026-04-26 15:35 | 36.82369 | 12.00631 | 1073 ft | 117 kts | 256° |
| 2026-04-26 15:36 | 36.82191 | 11.99559 | 1042 ft | 140 kts | 258° |
| 2026-04-26 15:36 | 36.81955 | 11.98382 | 838 ft | 146 kts | 252° |
| 2026-04-26 15:36 | 36.81710 | 11.97179 | 621 ft | 132 kts | 254° |
| 2026-04-26 15:36 | 36.81536 | 11.96306 | 606 ft | 57 kts | 260° |
| 2026-04-26 15:37 | 36.81478 | 11.96023 | 613 ft | 31 kts | 256° |
| 2026-04-26 15:37 | 36.81424 | 11.95751 | 613 ft | 16 kts | 257° |
| 2026-04-26 15:37 | 36.81421 | 11.95659 | 611 ft | 0 kts | 306° |
| 2026-04-26 15:37 | 36.81405 | 11.95655 | 611 ft | 8 kts | 104° |
| 2026-04-26 15:38 | 36.81427 | 11.95777 | 614 ft | 21 kts | 76° |
| 2026-04-26 15:38 | 36.81476 | 11.96017 | 613 ft | 35 kts | 76° |
| 2026-04-26 15:38 | 36.81542 | 11.96360 | 604 ft | 45 kts | 76° |
| 2026-04-26 15:38 | 36.81617 | 11.96738 | 601 ft | 30 kts | 79° |
| 2026-04-26 15:39 | 36.81660 | 11.96893 | 599 ft | 8 kts | 31° |
| 2026-04-26 15:39 | 36.81740 | 11.96929 | 596 ft | 13 kts | 1° |
| 2026-04-26 15:39 | 36.81772 | 11.96879 | 594 ft | 1 kts | 306° |
| 2026-04-26 15:39 | 36.81784 | 11.96857 | 593 ft | 4 kts | 301° |
| 2026-04-26 15:40 | 36.81810 | 11.96797 | 591 ft | 1 kts | 298° |
| 2026-04-26 15:40 | 36.81812 | 11.96792 | 591 ft | 0 kts | 293° |
| 2026-04-26 15:40 | 36.81813 | 11.96790 | 591 ft | 0 kts | 293° |